Time;durP1;ratioP1;P1;durP2;ratioP2;P2;SDS_P1;SDS_P2;PMS_P1;PMS_P2;Temp;Humidity;BMP_temperature;BMP_pressure;BME280_temperature;BME280_humidity;BME280_pressure;Samples;Min_cycle;Max_cycle;Signal;HPM_P1;HPM_P2
2023/05/09 00:00:22;;;;;;;136.88;56.97;;;;;;;-144.87;100.00;61487.56;4956438;28;20563;-80
2023/05/09 00:02:48;;;;;;;133.52;56.15;;;;;;;-144.87;100.00;61487.56;4956759;28;20042;-80
2023/05/09 00:05:15;;;;;;;143.50;57.78;;;;;;;-144.87;100.00;61487.56;4960670;28;20058;-79
2023/05/09 00:07:41;;;;;;;142.48;58.03;;;;;;;-144.87;100.00;61487.56;4948528;28;20077;-80
2023/05/09 00:10:07;;;;;;;133.70;55.30;;;;;;;-144.87;100.00;61487.56;4964711;28;20031;-80
2023/05/09 00:12:34;;;;;;;143.00;56.90;;;;;;;-144.87;100.00;61487.56;4962499;28;20039;-80
2023/05/09 00:15:00;;;;;;;139.70;56.42;;;;;;;-144.87;100.00;61487.56;4964638;28;20042;-80
2023/05/09 00:17:27;;;;;;;149.18;56.92;;;;;;;-144.87;100.00;61487.56;4947812;28;20070;-79
2023/05/09 00:19:54;;;;;;;143.30;58.25;;;;;;;-144.87;100.00;61487.56;4977432;28;20053;-80
2023/05/09 00:22:21;;;;;;;144.45;56.47;;;;;;;-144.87;100.00;61487.56;4951217;28;20106;-79
2023/05/09 00:24:48;;;;;;;144.10;57.70;;;;;;;-144.87;100.00;61487.56;4972036;28;20098;-79
2023/05/09 00:27:15;;;;;;;139.68;56.70;;;;;;;-144.87;100.00;61487.56;4966787;28;20412;-79
2023/05/09 00:29:41;;;;;;;150.10;57.00;;;;;;;-144.87;100.00;61487.56;4935622;28;20043;-79
2023/05/09 00:32:08;;;;;;;151.40;58.08;;;;;;;-144.87;100.00;61487.56;4925291;28;20039;-79
2023/05/09 00:34:34;;;;;;;156.40;62.47;;;;;;;-144.87;100.00;61487.56;4954288;28;20050;-78
2023/05/09 00:37:01;;;;;;;157.55;61.00;;;;;;;-144.87;100.00;61487.56;4933428;28;20035;-78
2023/05/09 00:39:27;;;;;;;163.90;61.97;;;;;;;-144.87;100.00;61487.56;4968512;28;20039;-79
2023/05/09 00:41:56;;;;;;;156.82;62.47;;;;;;;-144.87;100.00;61487.56;4935092;28;20045;-79
2023/05/09 00:44:22;;;;;;;168.88;63.13;;;;;;;-144.87;100.00;61487.56;4951544;28;20046;-78
2023/05/09 00:46:49;;;;;;;162.02;61.25;;;;;;;-144.87;100.00;61487.56;4970125;28;20524;-79
2023/05/09 00:49:15;;;;;;;158.15;59.60;;;;;;;-144.87;100.00;61487.56;4942017;28;20041;-80
2023/05/09 00:51:42;;;;;;;167.23;61.15;;;;;;;-144.87;100.00;61487.56;4949848;28;20038;-79
2023/05/09 00:54:08;;;;;;;169.45;60.90;;;;;;;-144.87;100.00;61487.56;4950994;28;20038;-79
2023/05/09 00:56:34;;;;;;;161.07;60.38;;;;;;;-144.87;100.00;61487.56;4934949;28;20110;-79
2023/05/09 00:59:01;;;;;;;166.45;60.55;;;;;;;-144.87;100.00;61487.56;4954484;28;20179;-79
2023/05/09 01:01:27;;;;;;;177.32;62.90;;;;;;;-144.87;100.00;61487.56;4927656;28;20039;-78
2023/05/09 01:03:54;;;;;;;167.45;60.22;;;;;;;-144.87;100.00;61487.56;4931728;28;20046;-79
2023/05/09 01:06:49;;;;;;;174.05;62.55;;;;;;;-144.87;100.00;61487.56;4968082;28;20023;-81
2023/05/09 01:09:24;;;;;;;169.50;60.90;;;;;;;-144.87;100.00;61487.56;4942748;28;20748;-79
2023/05/09 01:12:20;;;;;;;173.57;61.88;;;;;;;-144.87;100.00;61487.56;4962120;28;20043;-80
2023/05/09 01:15:17;;;;;;;168.25;60.38;;;;;;;-144.87;100.00;61487.56;4911513;28;20040;-79
2023/05/09 01:18:30;;;;;;;164.50;60.83;;;;;;;-144.87;100.00;61487.56;4928996;28;20030;-79
2023/05/09 01:20:57;;;;;;;177.32;64.63;;;;;;;-144.87;100.00;61487.56;4937648;28;20046;-79
2023/05/09 01:23:43;;;;;;;163.40;58.60;;;;;;;-144.87;100.00;61487.56;4935317;28;20129;-80
2023/05/09 01:26:34;;;;;;;158.60;58.30;;;;;;;-144.87;100.00;61487.56;4936935;28;20034;-79
2023/05/09 01:29:14;;;;;;;;;;;;;;;-144.87;100.00;61487.56;4950341;28;20034;-80
2023/05/09 01:31:43;;;;;;;159.20;59.78;;;;;;;-144.87;100.00;61487.56;4937757;28;19913;-80
2023/05/09 01:34:11;;;;;;;145.55;56.53;;;;;;;-144.87;100.00;61487.56;4945945;28;20027;-79
2023/05/09 01:36:39;;;;;;;152.82;55.60;;;;;;;-144.87;100.00;61487.56;4934459;28;20027;-80
2023/05/09 01:39:06;;;;;;;152.80;56.22;;;;;;;-144.87;100.00;61487.56;4935756;28;20049;-79
2023/05/09 01:41:36;;;;;;;158.50;59.25;;;;;;;-144.87;100.00;61487.56;4922522;28;20043;-79
2023/05/09 01:44:05;;;;;;;139.27;53.88;;;;;;;-144.87;100.00;61487.56;4952525;28;20034;-79
2023/05/09 01:46:32;;;;;;;144.18;57.53;;;;;;;-144.87;100.00;61487.56;4933107;28;20039;-80
2023/05/09 01:49:00;;;;;;;142.10;57.25;;;;;;;-144.87;100.00;61487.56;4953622;28;20500;-80
2023/05/09 01:51:26;;;;;;;136.82;52.50;;;;;;;-144.87;100.00;61487.56;4937987;28;20042;-79
2023/05/09 01:53:54;;;;;;;136.98;54.28;;;;;;;-144.87;100.00;61487.56;4935175;28;20031;-79
2023/05/09 01:56:21;;;;;;;130.35;54.35;;;;;;;-144.87;100.00;61487.56;4945346;28;20022;-79
2023/05/09 01:58:49;;;;;;;123.28;51.47;;;;;;;-144.87;100.00;61487.56;4931886;28;20043;-79
2023/05/09 02:01:16;;;;;;;118.32;51.63;;;;;;;-144.87;100.00;61487.56;4966580;28;20027;-80
2023/05/09 02:03:44;;;;;;;122.50;50.83;;;;;;;-144.87;100.00;61487.56;4952934;28;20035;-79
2023/05/09 02:06:11;;;;;;;113.82;48.67;;;;;;;-144.87;100.00;61487.56;4967303;28;20054;-79
2023/05/09 02:08:37;;;;;;;110.55;48.13;;;;;;;-144.87;100.00;61487.56;4945268;28;20035;-81
2023/05/09 02:11:04;;;;;;;113.47;48.92;;;;;;;-144.87;100.00;61487.56;4939351;29;20043;-80
2023/05/09 02:13:33;;;;;;;105.07;45.45;;;;;;;-144.87;100.00;61487.56;4943008;28;20038;-79
2023/05/09 02:16:00;;;;;;;102.70;47.83;;;;;;;-144.87;100.00;61487.56;4939902;28;20058;-80
2023/05/09 02:18:28;;;;;;;103.97;46.65;;;;;;;-144.87;100.00;61487.56;4936269;28;20074;-79
2023/05/09 02:20:54;;;;;;;106.43;47.55;;;;;;;-144.87;100.00;61487.56;4955982;28;20038;-80
2023/05/09 02:23:21;;;;;;;104.45;46.90;;;;;;;-144.87;100.00;61487.56;4954941;28;20038;-78
2023/05/09 02:25:47;;;;;;;111.63;48.67;;;;;;;-144.87;100.00;61487.56;4937520;28;20050;-79
2023/05/09 02:28:14;;;;;;;96.60;46.88;;;;;;;-144.87;100.00;61487.56;4938575;28;20039;-79
2023/05/09 02:30:43;;;;;;;97.65;46.03;;;;;;;-144.87;100.00;61487.56;4938396;28;20031;-79
2023/05/09 02:33:11;;;;;;;91.90;44.40;;;;;;;-144.87;100.00;61487.56;4939627;28;20097;-80
2023/05/09 02:35:39;;;;;;;92.45;43.22;;;;;;;-144.87;100.00;61487.56;4939092;28;20097;-80
2023/05/09 02:38:06;;;;;;;98.05;44.80;;;;;;;-144.87;100.00;61487.56;4936254;28;20045;-79
2023/05/09 02:40:33;;;;;;;99.28;45.20;;;;;;;-144.87;100.00;61487.56;4934963;28;20512;-79
2023/05/09 02:43:00;;;;;;;98.78;45.80;;;;;;;-144.87;100.00;61487.56;4956567;28;20039;-79
2023/05/09 02:45:27;;;;;;;100.80;45.78;;;;;;;-144.87;100.00;61487.56;4942065;28;20035;-78
2023/05/09 02:47:53;;;;;;;108.93;47.72;;;;;;;-144.87;100.00;61487.56;4961507;28;20069;-78
2023/05/09 02:50:20;;;;;;;107.25;47.80;;;;;;;-144.87;100.00;61487.56;4946370;29;20039;-82
2023/05/09 02:52:46;;;;;;;115.32;47.97;;;;;;;-144.87;100.00;61487.56;4972765;28;20038;-79
2023/05/09 02:55:12;;;;;;;108.63;47.50;;;;;;;-144.87;100.00;61487.56;4977442;28;20054;-80
2023/05/09 02:57:41;;;;;;;114.68;48.22;;;;;;;-144.87;100.00;61487.56;4961274;28;20027;-81
2023/05/09 03:00:08;;;;;;;128.07;52.60;;;;;;;-144.87;100.00;61487.56;4959120;28;20031;-80
2023/05/09 03:02:36;;;;;;;124.20;51.85;;;;;;;-144.87;100.00;61487.56;4962751;28;20039;-80
2023/05/09 03:05:03;;;;;;;131.77;52.38;;;;;;;-144.87;100.00;61487.56;4928285;28;20083;-79
2023/05/09 03:07:30;;;;;;;133.23;52.05;;;;;;;-144.87;100.00;61487.56;4928984;28;20047;-81
2023/05/09 03:09:58;;;;;;;136.32;54.05;;;;;;;-144.87;100.00;61487.56;4944909;28;20043;-80
2023/05/09 03:12:25;;;;;;;130.18;52.17;;;;;;;-144.87;100.00;61487.56;4960567;28;20049;-80
2023/05/09 03:14:54;;;;;;;130.82;52.35;;;;;;;-144.87;100.00;61487.56;4944307;28;20075;-80
2023/05/09 03:17:22;;;;;;;145.45;53.53;;;;;;;-144.87;100.00;61487.56;4947422;28;20082;-80
2023/05/09 03:19:49;;;;;;;137.88;53.20;;;;;;;-144.87;100.00;61487.56;4955605;28;20414;-80
2023/05/09 03:22:15;;;;;;;138.02;54.67;;;;;;;-144.87;100.00;61487.56;4973298;28;20043;-82
2023/05/09 03:24:52;;;;;;;133.30;53.85;;;;;;;-144.87;100.00;61487.56;4955914;28;20479;-80
2023/05/09 03:27:19;;;;;;;140.35;53.08;;;;;;;-144.87;100.00;61487.56;4924866;28;20054;-80
2023/05/09 03:29:45;;;;;;;135.43;52.75;;;;;;;-144.87;100.00;61487.56;4942097;28;20404;-79
2023/05/09 03:32:15;;;;;;;142.50;52.10;;;;;;;-144.87;100.00;61487.56;4942226;28;20035;-78
2023/05/09 03:34:41;;;;;;;139.75;52.95;;;;;;;-144.87;100.00;61487.56;4976676;28;20066;-80
2023/05/09 03:37:07;;;;;;;129.02;49.83;;;;;;;-144.87;100.00;61487.56;4978715;28;20030;-80
2023/05/09 03:39:37;;;;;;;134.38;53.80;;;;;;;-144.87;100.00;61487.56;4965049;28;20031;-78
2023/05/09 03:42:04;;;;;;;135.70;52.03;;;;;;;-144.87;100.00;61487.56;4934487;28;20495;-78
2023/05/09 03:44:30;;;;;;;141.38;52.05;;;;;;;-144.87;100.00;61487.56;4953675;28;20039;-79
2023/05/09 03:46:59;;;;;;;144.63;54.03;;;;;;;-144.87;100.00;61487.56;4934795;28;20050;-81
2023/05/09 03:49:26;;;;;;;127.18;49.28;;;;;;;-144.87;100.00;61487.56;4953354;28;20039;-80
2023/05/09 03:51:53;;;;;;;128.52;49.85;;;;;;;-144.87;100.00;61487.56;4966085;28;20054;-81
2023/05/09 03:54:20;;;;;;;124.95;49.95;;;;;;;-144.87;100.00;61487.56;4935302;28;20500;-81
2023/05/09 03:56:46;;;;;;;126.68;52.00;;;;;;;-144.87;100.00;61487.56;4932650;28;20039;-80
2023/05/09 03:59:13;;;;;;;124.38;48.88;;;;;;;-144.87;100.00;61487.56;4978569;28;20054;-80
2023/05/09 04:01:39;;;;;;;123.30;49.72;;;;;;;-144.87;100.00;61487.56;4944663;28;20137;-79
2023/05/09 04:04:06;;;;;;;123.95;49.85;;;;;;;-144.87;100.00;61487.56;4941503;28;20487;-80
2023/05/09 04:06:35;;;;;;;125.20;50.28;;;;;;;-144.87;100.00;61487.56;4920615;29;20062;-80
2023/05/09 04:09:04;;;;;;;118.68;49.05;;;;;;;-144.87;100.00;61487.56;4939642;29;20071;-80
2023/05/09 04:11:30;;;;;;;116.45;48.60;;;;;;;-144.87;100.00;61487.56;4916523;28;20031;-78
2023/05/09 04:13:59;;;;;;;114.38;47.22;;;;;;;-144.87;100.00;61487.56;4922915;29;20039;-79
2023/05/09 04:16:29;;;;;;;113.20;48.58;;;;;;;-144.87;100.00;61487.56;4939816;28;20035;-79
2023/05/09 04:18:56;;;;;;;106.43;47.47;;;;;;;-144.87;100.00;61487.56;4921243;28;20039;-79
2023/05/09 04:21:22;;;;;;;111.78;47.45;;;;;;;-144.87;100.00;61487.56;4937831;28;20035;-82
2023/05/09 04:23:52;;;;;;;99.07;44.83;;;;;;;-144.87;100.00;61487.56;4943888;28;20075;-79
2023/05/09 04:26:26;;;;;;;106.18;44.80;;;;;;;-144.87;100.00;61487.56;4946395;28;20492;-80
2023/05/09 04:28:55;;;;;;;110.65;45.65;;;;;;;-144.87;100.00;61487.56;4967789;28;20098;-80
2023/05/09 04:31:22;;;;;;;108.63;45.63;;;;;;;-144.87;100.00;61487.56;4970512;28;20030;-80
2023/05/09 04:33:51;;;;;;;102.75;46.47;;;;;;;-144.87;100.00;61487.56;4958843;28;20026;-81
2023/05/09 04:36:17;;;;;;;111.38;46.45;;;;;;;-144.87;100.00;61487.56;4972940;28;20015;-80
2023/05/09 04:38:43;;;;;;;101.22;47.10;;;;;;;-144.87;100.00;61487.56;4969709;28;20030;-79
2023/05/09 04:41:14;;;;;;;111.07;47.05;;;;;;;-144.87;100.00;61487.56;4952650;28;20037;-79
2023/05/09 04:43:42;;;;;;;108.78;47.47;;;;;;;-144.87;100.00;61487.56;4951255;28;20023;-79
2023/05/09 04:46:08;;;;;;;100.05;45.40;;;;;;;-144.87;100.00;61487.56;4960861;28;20025;-79
2023/05/09 04:48:35;;;;;;;100.10;45.30;;;;;;;-144.87;100.00;61487.56;4938883;29;20039;-80
2023/05/09 04:51:02;;;;;;;102.45;45.63;;;;;;;-144.87;100.00;61487.56;4933797;28;20050;-79
2023/05/09 04:53:28;;;;;;;95.20;45.55;;;;;;;-144.87;100.00;61487.56;4943303;28;20069;-80
2023/05/09 04:55:55;;;;;;;98.32;44.78;;;;;;;-144.87;100.00;61487.56;4938319;29;20054;-78
2023/05/09 04:58:24;;;;;;;84.75;43.70;;;;;;;-144.87;100.00;61487.56;4941354;28;20483;-79
2023/05/09 05:00:50;;;;;;;93.18;42.65;;;;;;;-144.87;100.00;61487.56;4924600;28;20085;-80
2023/05/09 05:03:17;;;;;;;87.03;42.97;;;;;;;-144.87;100.00;61487.56;4926224;28;20034;-78
2023/05/09 05:05:44;;;;;;;83.55;42.20;;;;;;;-144.87;100.00;61487.56;4954034;28;20039;-78
2023/05/09 05:08:11;;;;;;;82.50;42.95;;;;;;;-144.87;100.00;61487.56;4977235;28;20472;-77
2023/05/09 05:10:40;;;;;;;76.43;40.35;;;;;;;-144.87;100.00;61487.56;4949809;28;20898;-79
2023/05/09 05:13:10;;;;;;;73.18;37.80;;;;;;;-144.87;100.00;61487.56;4942593;28;20038;-79
2023/05/09 05:15:40;;;;;;;70.78;37.67;;;;;;;-144.87;100.00;61487.56;4934437;28;20031;-78
2023/05/09 05:18:08;;;;;;;70.47;38.75;;;;;;;-144.87;100.00;61487.56;4959242;28;20362;-78
2023/05/09 05:20:35;;;;;;;70.97;36.58;;;;;;;-144.87;100.00;61487.56;4946479;28;20047;-76
2023/05/09 05:23:01;;;;;;;64.72;35.70;;;;;;;-144.87;100.00;61487.56;4953400;28;20035;-79
2023/05/09 05:25:27;;;;;;;66.45;35.25;;;;;;;-144.87;100.00;61487.56;4952425;28;20082;-77
2023/05/09 05:27:55;;;;;;;61.03;34.50;;;;;;;-144.87;100.00;61487.56;4946998;28;20229;-80
2023/05/09 05:30:21;;;;;;;55.00;32.67;;;;;;;-144.87;100.00;61487.56;4963240;28;20404;-80
2023/05/09 05:32:48;;;;;;;55.67;32.22;;;;;;;-144.87;100.00;61487.56;4944538;28;20043;-79
2023/05/09 05:35:18;;;;;;;55.63;31.45;;;;;;;-144.87;100.00;61487.56;4952156;28;20053;-79
2023/05/09 05:37:44;;;;;;;53.95;31.83;;;;;;;-144.87;100.00;61487.56;4920930;28;20023;-80
2023/05/09 05:40:11;;;;;;;51.78;30.95;;;;;;;-144.87;100.00;61487.56;4920869;28;20039;-81
2023/05/09 05:42:43;;;;;;;50.20;29.88;;;;;;;-144.87;100.00;61487.56;4937082;28;20030;-80
2023/05/09 05:45:11;;;;;;;58.10;29.55;;;;;;;-144.87;100.00;61487.56;4936769;28;20023;-80
2023/05/09 05:47:40;;;;;;;45.95;29.15;;;;;;;-144.87;100.00;61487.56;4921595;28;20109;-81
2023/05/09 05:50:10;;;;;;;50.20;30.20;;;;;;;-144.87;100.00;61487.56;4917641;28;20110;-79
2023/05/09 05:52:38;;;;;;;46.00;28.38;;;;;;;-144.87;100.00;61487.56;4952959;28;20500;-80
2023/05/09 05:55:06;;;;;;;45.78;29.05;;;;;;;-144.87;100.00;61487.56;4939936;28;20030;-79
2023/05/09 05:57:36;;;;;;;45.88;28.83;;;;;;;-144.87;100.00;61487.56;4952770;28;20043;-79
2023/05/09 06:00:09;;;;;;;44.20;27.75;;;;;;;-144.87;100.00;61487.56;4951635;28;20523;-78
2023/05/09 06:02:43;;;;;;;46.80;28.55;;;;;;;-144.87;100.00;61487.56;4956345;28;20125;-79
2023/05/09 06:05:10;;;;;;;47.72;28.98;;;;;;;-144.87;100.00;61487.56;4962398;28;20030;-78
2023/05/09 06:07:39;;;;;;;45.92;27.98;;;;;;;-144.87;100.00;61487.56;4941916;28;20237;-77
2023/05/09 06:10:07;;;;;;;49.08;30.33;;;;;;;-144.87;100.00;61487.56;4945330;28;20054;-79
2023/05/09 06:12:33;;;;;;;44.75;27.52;;;;;;;-144.87;100.00;61487.56;4950282;28;20295;-77
2023/05/09 06:14:59;;;;;;;49.42;29.20;;;;;;;-144.87;100.00;61487.56;4953129;28;20094;-78
2023/05/09 06:17:26;;;;;;;50.67;29.65;;;;;;;-144.87;100.00;61487.56;4954018;28;20030;-77
2023/05/09 06:19:53;;;;;;;52.47;30.25;;;;;;;-144.87;100.00;61487.56;4964232;28;20034;-77
2023/05/09 06:22:20;;;;;;;48.67;30.63;;;;;;;-144.87;100.00;61487.56;4933213;28;20055;-78
2023/05/09 06:24:46;;;;;;;55.60;29.48;;;;;;;-144.87;100.00;61487.56;4992255;28;20030;-77
2023/05/09 06:27:13;;;;;;;50.10;30.45;;;;;;;-144.87;100.00;61487.56;4946269;28;20183;-78
2023/05/09 06:29:39;;;;;;;52.88;28.48;;;;;;;-144.87;100.00;61487.56;4937380;28;20038;-77
2023/05/09 06:32:05;;;;;;;47.45;29.85;;;;;;;-144.87;100.00;61487.56;4931606;28;20039;-78
2023/05/09 06:34:32;;;;;;;53.33;30.35;;;;;;;-144.87;100.00;61487.56;4954210;28;20126;-78
2023/05/09 06:36:58;;;;;;;54.20;30.95;;;;;;;-144.87;100.00;61487.56;4962544;28;20086;-77
2023/05/09 06:39:24;;;;;;;53.08;32.03;;;;;;;-144.87;100.00;61487.56;4972724;28;20030;-78
2023/05/09 06:41:51;;;;;;;53.53;30.10;;;;;;;-144.87;100.00;61487.56;4924664;28;20070;-78
2023/05/09 06:44:24;;;;;;;53.45;29.55;;;;;;;-144.87;100.00;61487.56;4956666;28;20111;-82
2023/05/09 06:46:50;;;;;;;50.63;30.20;;;;;;;-144.87;100.00;61487.56;4952152;28;20058;-79
2023/05/09 06:49:17;;;;;;;52.33;30.60;;;;;;;-144.87;100.00;61487.56;4952548;28;20462;-79
2023/05/09 06:51:43;;;;;;;72.93;34.85;;;;;;;-144.87;100.00;61487.56;4951605;28;20031;-80
2023/05/09 06:54:09;;;;;;;61.42;32.08;;;;;;;-144.87;100.00;61487.56;4972427;28;20039;-80
2023/05/09 06:56:36;;;;;;;62.78;32.72;;;;;;;-144.87;100.00;61487.56;4943863;28;20023;-79
2023/05/09 06:59:02;;;;;;;57.30;30.95;;;;;;;-144.87;100.00;61487.56;4964839;28;20082;-80
2023/05/09 07:01:28;;;;;;;49.95;30.15;;;;;;;-144.87;100.00;61487.56;4981555;28;20035;-78
2023/05/09 07:03:55;;;;;;;51.97;30.73;;;;;;;-144.87;100.00;61487.56;4932167;28;20020;-78
2023/05/09 07:06:22;;;;;;;52.60;30.13;;;;;;;-144.87;100.00;61487.56;4979236;28;21259;-78
2023/05/09 07:08:49;;;;;;;54.05;30.70;;;;;;;-144.87;100.00;61487.56;4941498;28;20124;-78
2023/05/09 07:11:15;;;;;;;53.35;31.55;;;;;;;-144.87;100.00;61487.56;4972743;28;20101;-78
2023/05/09 07:13:41;;;;;;;55.92;32.45;;;;;;;-144.87;100.00;61487.56;4956351;28;20084;-79
2023/05/09 07:16:08;;;;;;;58.22;31.95;;;;;;;-144.87;100.00;61487.56;4952904;28;20080;-79
2023/05/09 07:18:34;;;;;;;66.97;32.50;;;;;;;-144.87;100.00;61487.56;4938660;28;20039;-78
2023/05/09 07:21:00;;;;;;;52.65;32.08;;;;;;;-144.87;100.00;61487.56;4955224;28;20034;-79
2023/05/09 07:23:27;;;;;;;59.05;33.40;;;;;;;-144.87;100.00;61487.56;4924021;28;20465;-78
2023/05/09 07:26:00;;;;;;;54.40;32.63;;;;;;;-144.87;100.00;61487.56;4952879;28;20077;-78
2023/05/09 07:28:26;;;;;;;52.95;31.77;;;;;;;-144.87;100.00;61487.56;4952552;28;20062;-78
2023/05/09 07:30:55;;;;;;;53.30;30.25;;;;;;;-144.87;100.00;61487.56;4951143;28;20046;-78
2023/05/09 07:33:22;;;;;;;56.65;32.03;;;;;;;-144.87;100.00;61487.56;4954290;28;20288;-79
2023/05/09 07:35:48;;;;;;;51.50;31.45;;;;;;;-144.87;100.00;61487.56;4953187;28;20043;-78
2023/05/09 07:38:15;;;;;;;52.05;31.55;;;;;;;-144.87;100.00;61487.56;4971004;28;20069;-78
2023/05/09 07:40:41;;;;;;;51.78;30.55;;;;;;;-144.87;100.00;61487.56;4953896;28;20077;-78
2023/05/09 07:43:07;;;;;;;48.67;30.05;;;;;;;-144.87;100.00;61487.56;4949623;28;20471;-79
2023/05/09 07:45:33;;;;;;;50.25;29.17;;;;;;;-144.87;100.00;61487.56;4974682;28;20046;-78
2023/05/09 07:48:00;;;;;;;45.08;28.45;;;;;;;-144.87;100.00;61487.56;4960395;28;20055;-78
2023/05/09 07:50:26;;;;;;;42.72;27.42;;;;;;;-144.87;100.00;61487.56;4937015;28;20030;-80
2023/05/09 07:52:54;;;;;;;51.10;27.10;;;;;;;-144.87;100.00;61487.56;4995910;28;20026;-79
2023/05/09 07:55:20;;;;;;;43.00;26.08;;;;;;;-144.87;100.00;61487.56;4954719;28;20039;-78
2023/05/09 07:57:50;;;;;;;44.58;26.10;;;;;;;-144.87;100.00;61487.56;4952414;28;20043;-77
2023/05/09 08:00:17;;;;;;;42.90;26.10;;;;;;;-144.87;100.00;61487.56;4971883;28;20137;-76
2023/05/09 08:02:43;;;;;;;42.17;26.52;;;;;;;-144.87;100.00;61487.56;4951064;28;20101;-82
2023/05/09 08:05:12;;;;;;;45.70;26.88;;;;;;;-144.87;100.00;61487.56;4941932;28;20035;-78
2023/05/09 08:07:39;;;;;;;48.75;28.70;;;;;;;-144.87;100.00;61487.56;4968836;28;20134;-80
2023/05/09 08:10:05;;;;;;;44.42;27.67;;;;;;;-144.87;100.00;61487.56;4935623;28;20078;-81
2023/05/09 08:12:32;;;;;;;45.75;28.02;;;;;;;-144.87;100.00;61487.56;4932961;28;20042;-82
2023/05/09 08:14:58;;;;;;;44.15;28.30;;;;;;;-144.87;100.00;61487.56;4969990;28;20436;-81
2023/05/09 08:17:24;;;;;;;41.97;28.25;;;;;;;-144.87;100.00;61487.56;4955607;28;20030;-78
2023/05/09 08:19:51;;;;;;;46.97;29.42;;;;;;;-144.87;100.00;61487.56;4955010;28;20062;-78
2023/05/09 08:22:18;;;;;;;40.15;27.38;;;;;;;-144.87;100.00;61487.56;4953591;28;20058;-77
2023/05/09 08:24:45;;;;;;;38.63;26.25;;;;;;;-144.87;100.00;61487.56;4951479;28;20039;-78
2023/05/09 08:27:12;;;;;;;38.60;25.70;;;;;;;-144.87;100.00;61487.56;4953673;28;20046;-79
2023/05/09 08:29:42;;;;;;;40.50;25.42;;;;;;;-144.87;100.00;61487.56;4973363;28;20420;-79
2023/05/09 08:32:08;;;;;;;40.30;26.95;;;;;;;-144.87;100.00;61487.56;4959505;28;20117;-79
2023/05/09 08:34:35;;;;;;;41.58;26.73;;;;;;;-144.87;100.00;61487.56;4939564;28;20035;-79
2023/05/09 08:37:02;;;;;;;35.25;25.27;;;;;;;-144.87;100.00;61487.56;4958042;28;20030;-79
2023/05/09 08:39:29;;;;;;;38.25;24.75;;;;;;;-144.87;100.00;61487.56;4974515;28;20110;-78
2023/05/09 08:41:58;;;;;;;36.17;23.17;;;;;;;-144.87;100.00;61487.56;4976117;28;20113;-78
2023/05/09 08:44:26;;;;;;;36.13;23.50;;;;;;;-144.87;100.00;61487.56;4955937;28;20061;-78
2023/05/09 08:46:55;;;;;;;31.13;21.27;;;;;;;-144.87;100.00;61487.56;4973973;28;20046;-78
2023/05/09 08:49:22;;;;;;;32.95;22.67;;;;;;;-144.87;100.00;61487.56;4972336;28;20045;-78
2023/05/09 08:51:48;;;;;;;28.85;20.08;;;;;;;-144.87;100.00;61487.56;4929315;28;20031;-79
2023/05/09 08:54:15;;;;;;;28.88;20.80;;;;;;;-144.87;100.00;61487.56;4939998;28;20082;-79
2023/05/09 08:56:41;;;;;;;28.60;19.92;;;;;;;-144.87;100.00;61487.56;4954080;28;20035;-79
2023/05/09 08:59:09;;;;;;;32.85;20.33;;;;;;;-144.87;100.00;61487.56;4951797;28;20103;-78
2023/05/09 09:01:35;;;;;;;31.90;20.65;;;;;;;-144.87;100.00;61487.56;4954973;28;20054;-80
2023/05/09 09:04:06;;;;;;;25.98;19.70;;;;;;;-144.87;100.00;61487.56;4938235;28;20125;-80
2023/05/09 09:06:36;;;;;;;25.92;18.80;;;;;;;-144.87;100.00;61487.56;4972017;28;20518;-77
2023/05/09 09:09:04;;;;;;;24.67;18.10;;;;;;;-144.87;100.00;61487.56;4939797;28;20105;-82
2023/05/09 09:11:32;;;;;;;24.38;16.88;;;;;;;-144.87;100.00;61487.56;4950449;28;20043;-79
2023/05/09 09:14:12;;;;;;;23.52;17.63;;;;;;;-144.87;100.00;61487.56;4955487;28;20034;-78
2023/05/09 09:16:40;;;;;;;21.73;16.98;;;;;;;-144.87;100.00;61487.56;4955678;28;20160;-77
2023/05/09 09:19:11;;;;;;;26.23;19.85;;;;;;;-144.87;100.00;61487.56;4938102;28;20050;-78
2023/05/09 09:21:38;;;;;;;;;;;;;;;-144.87;100.00;61487.56;4955762;28;20038;-76
2023/05/09 09:24:06;;;;;;;27.38;20.15;;;;;;;-144.87;100.00;61487.56;4972525;28;19910;-80
2023/05/09 09:26:33;;;;;;;26.63;20.02;;;;;;;-144.87;100.00;61487.56;4938529;28;20041;-77
2023/05/09 09:29:00;;;;;;;27.60;20.98;;;;;;;-144.87;100.00;61487.56;4938770;28;20053;-77
2023/05/09 09:31:30;;;;;;;28.10;20.27;;;;;;;-144.87;100.00;61487.56;4937737;28;20047;-78
2023/05/09 09:34:01;;;;;;;26.77;21.00;;;;;;;-144.87;100.00;61487.56;4935358;29;20417;-77
2023/05/09 09:36:29;;;;;;;27.88;21.90;;;;;;;-144.87;100.00;61487.56;4950453;28;20035;-78
2023/05/09 09:39:00;;;;;;;27.48;21.58;;;;;;;-144.87;100.00;61487.56;4944281;28;20030;-78
2023/05/09 09:41:32;;;;;;;;;;;;;;;-144.87;100.00;61487.56;4933909;28;20420;-78
2023/05/09 09:44:04;;;;;;;27.95;21.05;;;;;;;-144.87;100.00;61487.56;4941596;28;19917;-79
2023/05/09 09:46:41;;;;;;;25.20;20.52;;;;;;;-144.87;100.00;61487.56;4945514;29;20039;-79
2023/05/09 09:49:14;;;;;;;27.20;19.30;;;;;;;-144.87;100.00;61487.56;4952419;28;20038;-77
2023/05/09 09:51:41;;;;;;;26.48;19.80;;;;;;;-144.87;100.00;61487.56;4953933;28;20039;-78
2023/05/09 09:54:09;;;;;;;26.52;19.65;;;;;;;-144.87;100.00;61487.56;4955205;28;20259;-78
2023/05/09 09:56:44;;;;;;;26.85;19.58;;;;;;;-144.87;100.00;61487.56;4954857;28;20035;-79
2023/05/09 09:59:18;;;;;;;24.70;19.88;;;;;;;-144.87;100.00;61487.56;4971387;28;20105;-76
2023/05/09 10:01:56;;;;;;;24.08;18.70;;;;;;;-144.87;100.00;61487.56;4938733;28;20046;-80
2023/05/09 10:04:23;;;;;;;25.63;19.85;;;;;;;-144.87;100.00;61487.56;4954570;28;20038;-79
2023/05/09 10:06:55;;;;;;;25.40;19.95;;;;;;;-144.87;100.00;61487.56;4934314;28;20023;-79
2023/05/09 10:09:23;;;;;;;28.15;21.15;;;;;;;-144.87;100.00;61487.56;4937923;28;20179;-79
2023/05/09 10:11:53;;;;;;;33.30;20.90;;;;;;;-144.87;100.00;61487.56;4951359;28;20057;-79
2023/05/09 10:14:22;;;;;;;25.40;20.08;;;;;;;-144.87;100.00;61487.56;4953404;28;20135;-79
2023/05/09 10:16:49;;;;;;;28.83;20.33;;;;;;;-144.87;100.00;61487.56;4954229;28;20362;-78
2023/05/09 10:19:18;;;;;;;22.30;17.92;;;;;;;-144.87;100.00;61487.56;4951940;28;20172;-77
2023/05/09 10:21:52;;;;;;;24.08;17.52;;;;;;;-144.87;100.00;61487.56;4953984;28;20049;-80
2023/05/09 10:24:33;;;;;;;21.90;17.40;;;;;;;-144.87;100.00;61487.56;4954446;28;20187;-80
2023/05/09 10:27:03;;;;;;;21.73;17.38;;;;;;;-144.87;100.00;61487.56;4934840;29;20043;-80
2023/05/09 10:29:37;;;;;;;24.08;18.33;;;;;;;-144.87;100.00;61487.56;4938194;28;20101;-79
2023/05/09 10:32:29;;;;;;;24.50;17.80;;;;;;;-144.87;100.00;61487.56;4959417;28;20150;-79
2023/05/09 10:35:00;;;;;;;22.63;16.75;;;;;;;-144.87;100.00;61487.56;4953259;28;20039;-83
2023/05/09 10:37:27;;;;;;;25.77;18.30;;;;;;;-144.87;100.00;61487.56;4959441;28;20027;-78
2023/05/09 10:39:54;;;;;;;25.55;17.42;;;;;;;-144.87;100.00;61487.56;4959269;28;20043;-78
2023/05/09 10:42:23;;;;;;;25.25;17.55;;;;;;;-144.87;100.00;61487.56;4940187;28;20046;-78
2023/05/09 10:44:52;;;;;;;21.05;16.98;;;;;;;-144.87;100.00;61487.56;4956806;28;20494;-79
2023/05/09 10:47:19;;;;;;;24.77;16.63;;;;;;;-144.87;100.00;61487.56;4951102;28;20038;-78
2023/05/09 10:49:46;;;;;;;21.23;16.17;;;;;;;-144.87;100.00;61487.56;4971051;28;20043;-78
2023/05/09 10:52:13;;;;;;;24.85;16.05;;;;;;;-144.87;100.00;61487.56;4953030;28;20354;-80
2023/05/09 10:54:39;;;;;;;21.70;16.17;;;;;;;-144.87;100.00;61487.56;4966955;28;20050;-80
2023/05/09 10:57:08;;;;;;;22.75;16.42;;;;;;;-144.87;100.00;61487.56;4950773;28;20590;-76